createdAt,value
2022-08-03T00:00:26.328Z,99.90
2022-08-03T00:03:14.409Z,99.90
2022-08-03T00:06:05.028Z,99.90
2022-08-03T00:08:53.008Z,99.90
2022-08-03T00:11:40.775Z,99.90
2022-08-03T00:14:28.541Z,99.90
2022-08-03T00:17:16.361Z,99.90
2022-08-03T00:20:04.629Z,99.90
2022-08-03T00:22:52.812Z,99.90
2022-08-03T00:25:40.611Z,99.90
2022-08-03T00:28:28.403Z,99.90
2022-08-03T00:31:16.586Z,99.90
2022-08-03T00:34:13.266Z,99.90
2022-08-03T00:37:01.323Z,99.90
2022-08-03T00:39:49.209Z,99.90
2022-08-03T00:42:51.381Z,99.90
2022-08-03T00:45:42.450Z,99.90
2022-08-03T00:48:33.685Z,99.90
2022-08-03T00:51:22.580Z,99.90
2022-08-03T00:54:10.767Z,99.90
2022-08-03T00:56:59.575Z,99.90
2022-08-03T00:59:48.218Z,99.90
2022-08-03T01:02:36.803Z,99.90
2022-08-03T01:05:25.377Z,99.90
2022-08-03T01:08:43.133Z,99.90
2022-08-03T01:12:00.879Z,99.90
2022-08-03T01:15:03.624Z,99.90
2022-08-03T01:17:58.816Z,99.90
2022-08-03T01:20:53.478Z,99.90
2022-08-03T01:24:07.537Z,99.90
2022-08-03T01:27:07.468Z,99.90
2022-08-03T01:30:12.348Z,99.90
2022-08-03T01:33:16.052Z,99.90
2022-08-03T01:36:10.140Z,99.90
2022-08-03T01:39:03.741Z,99.90
2022-08-03T01:42:00.490Z,99.90
2022-08-03T01:44:51.359Z,99.90
2022-08-03T01:47:41.343Z,99.90
2022-08-03T01:50:31.883Z,99.90
2022-08-03T01:53:21.533Z,99.90
2022-08-03T01:56:10.361Z,99.90
2022-08-03T01:59:01.066Z,99.90
2022-08-03T02:02:28.554Z,99.90
2022-08-03T02:05:01.016Z,99.90
2022-08-03T02:07:50.844Z,99.90
2022-08-03T02:10:42.597Z,99.90
2022-08-03T02:13:33.730Z,99.90
2022-08-03T02:16:23.391Z,99.90
2022-08-03T02:19:12.321Z,99.90
2022-08-03T02:22:01.922Z,99.90
2022-08-03T02:24:51.064Z,99.90
2022-08-03T02:28:07.096Z,99.90
2022-08-03T02:30:56.862Z,99.90
2022-08-03T02:33:54.298Z,99.90
2022-08-03T02:36:46.065Z,99.90
2022-08-03T02:39:36.874Z,99.90
2022-08-03T02:42:26.840Z,99.90
2022-08-03T02:45:17.129Z,99.90
2022-08-03T02:48:06.906Z,99.90
2022-08-03T02:50:57.531Z,99.90
2022-08-03T02:53:48.784Z,99.90
2022-08-03T02:56:38.076Z,99.90
2022-08-03T02:59:28.297Z,99.90
2022-08-03T03:02:17.618Z,99.90
2022-08-03T03:05:52.409Z,99.90
2022-08-03T03:08:27.497Z,99.90
2022-08-03T03:11:20.001Z,99.90
2022-08-03T03:14:12.310Z,99.90
2022-08-03T03:17:02.020Z,99.90
2022-08-03T03:19:52.356Z,99.90
2022-08-03T03:22:41.321Z,99.90
2022-08-03T03:25:34.027Z,99.90
2022-08-03T03:28:23.845Z,99.90
2022-08-03T03:31:12.142Z,99.90
2022-08-03T03:34:00.233Z,99.90
2022-08-03T03:36:48.095Z,99.90
2022-08-03T03:39:36.481Z,99.90
2022-08-03T03:42:25.903Z,99.90
2022-08-03T03:45:13.789Z,99.90
2022-08-03T03:48:04.155Z,99.90
2022-08-03T03:50:52.704Z,99.90
2022-08-03T03:53:40.515Z,99.90
2022-08-03T03:56:29.181Z,99.90
2022-08-03T03:59:17.136Z,99.90
2022-08-03T04:02:07.059Z,99.90
2022-08-03T04:05:13.124Z,99.90
2022-08-03T04:08:36.213Z,99.90
2022-08-03T04:11:54.739Z,99.90
2022-08-03T04:14:43.604Z,99.90
2022-08-03T04:17:32.766Z,99.90
2022-08-03T04:20:21.748Z,99.90
2022-08-03T04:23:13.501Z,99.90
2022-08-03T04:26:09.634Z,99.90
2022-08-03T04:28:58.903Z,99.90
2022-08-03T04:31:47.332Z,99.90
2022-08-03T04:34:35.735Z,99.90
2022-08-03T04:37:43.373Z,99.90
2022-08-03T04:40:34.964Z,99.90
2022-08-03T04:43:24.419Z,99.90
2022-08-03T04:46:12.960Z,99.90
2022-08-03T04:49:01.815Z,99.90
2022-08-03T04:51:50.283Z,99.90
2022-08-03T04:54:50.300Z,99.90
2022-08-03T04:57:38.588Z,99.90
2022-08-03T05:00:27.287Z,99.90
2022-08-03T05:03:20.245Z,99.90
2022-08-03T05:06:12.444Z,99.90
2022-08-03T05:09:04.787Z,99.90
2022-08-03T05:11:53.527Z,99.90
2022-08-03T05:14:41.290Z,99.90
2022-08-03T05:17:29.329Z,99.90
2022-08-03T05:20:19.080Z,99.90
2022-08-03T05:23:06.938Z,99.90
2022-08-03T05:25:54.730Z,99.90
2022-08-03T05:28:51.071Z,99.90
2022-08-03T05:31:39.196Z,99.90
2022-08-03T05:34:27.144Z,99.90
2022-08-03T05:37:14.980Z,99.90
2022-08-03T05:40:04.038Z,99.90
2022-08-03T05:42:51.883Z,99.90
2022-08-03T05:45:39.701Z,99.90
2022-08-03T05:48:27.572Z,99.90
2022-08-03T05:51:15.370Z,99.90
2022-08-03T05:54:03.525Z,99.90
2022-08-03T05:56:51.373Z,99.90
2022-08-03T05:59:39.440Z,99.90
2022-08-03T06:02:43.121Z,99.90
2022-08-03T06:05:31.371Z,99.90
2022-08-03T06:08:22.116Z,99.90
2022-08-03T06:11:09.965Z,99.90
2022-08-03T06:13:57.802Z,99.90
2022-08-03T06:16:45.611Z,99.90
2022-08-03T06:19:33.372Z,99.90
2022-08-03T06:22:21.334Z,99.90
2022-08-03T06:25:12.808Z,99.90
2022-08-03T06:28:01.046Z,99.90
2022-08-03T06:30:48.968Z,99.90
2022-08-03T06:34:31.297Z,99.90
2022-08-03T06:36:50.936Z,99.90
2022-08-03T06:39:43.369Z,99.90
2022-08-03T06:42:34.617Z,99.90
2022-08-03T06:45:25.019Z,99.90
2022-08-03T06:48:13.023Z,99.90
2022-08-03T06:51:00.929Z,99.90
2022-08-03T06:53:51.758Z,99.90
2022-08-03T06:56:42.265Z,99.90
2022-08-03T07:00:09.846Z,99.90
2022-08-03T07:02:41.108Z,99.90
2022-08-03T07:05:29.028Z,99.90
2022-08-03T07:08:17.148Z,99.90
2022-08-03T07:11:21.047Z,99.90
2022-08-03T07:14:08.907Z,99.90
2022-08-03T07:16:56.682Z,99.90
2022-08-03T07:19:46.686Z,99.90
2022-08-03T07:22:37.530Z,99.90
2022-08-03T07:25:25.629Z,99.90
2022-08-03T07:28:15.565Z,99.90
2022-08-03T07:31:05.965Z,99.90
2022-08-03T07:33:55.998Z,99.90
2022-08-03T07:36:43.875Z,99.90
2022-08-03T07:39:31.689Z,99.90
2022-08-03T07:42:19.497Z,99.90
2022-08-03T07:45:08.477Z,99.40
2022-08-03T07:48:08.774Z,98.90
2022-08-03T07:51:03.397Z,98.20
2022-08-03T07:53:51.228Z,96.40
2022-08-03T07:56:40.989Z,97.50
2022-08-03T07:59:28.862Z,96.00
2022-08-03T08:02:36.884Z,94.70
2022-08-03T08:05:24.998Z,93.60
2022-08-03T08:08:15.805Z,91.40
2022-08-03T08:11:09.723Z,90.80
2022-08-03T08:14:02.713Z,90.30
2022-08-03T08:16:58.651Z,90.30
2022-08-03T08:19:54.113Z,86.80
2022-08-03T08:22:47.734Z,83.50
2022-08-03T08:25:43.140Z,79.40
2022-08-03T08:28:33.720Z,77.70
2022-08-03T08:31:24.133Z,77.00
2022-08-03T08:34:19.867Z,74.20
2022-08-03T08:37:16.354Z,75.30
2022-08-03T08:40:06.327Z,70.60
2022-08-03T08:43:00.019Z,63.20
2022-08-03T08:45:52.557Z,63.40
2022-08-03T08:48:49.215Z,58.70
2022-08-03T08:51:51.049Z,55.60
2022-08-03T08:55:06.971Z,58.60
2022-08-03T08:58:06.312Z,56.40
2022-08-03T09:01:01.379Z,50.30
2022-08-03T09:03:57.509Z,47.40
2022-08-03T09:07:10.833Z,47.50
2022-08-03T09:10:11.746Z,48.20
2022-08-03T09:13:11.066Z,47.60
2022-08-03T09:16:25.690Z,47.60
2022-08-03T09:19:21.193Z,49.80
2022-08-03T09:22:19.232Z,48.30
2022-08-03T09:25:24.374Z,45.40
2022-08-03T09:29:01.649Z,40.60
2022-08-03T09:32:02.521Z,39.30
2022-08-03T09:34:57.907Z,40.40
2022-08-03T09:38:18.752Z,36.70
2022-08-03T09:41:21.106Z,36.70
2022-08-03T09:44:24.297Z,33.00
2022-08-03T09:47:45.068Z,32.40
2022-08-03T09:51:32.430Z,31.80
2022-08-03T09:54:15.042Z,31.70
2022-08-03T09:57:08.238Z,29.10
2022-08-03T10:00:17.166Z,29.10
2022-08-03T10:03:08.466Z,26.00
2022-08-03T10:06:20.102Z,27.80
2022-08-03T10:09:19.726Z,26.30
2022-08-03T10:12:17.120Z,26.30
2022-08-03T10:15:10.359Z,26.70
2022-08-03T10:18:21.109Z,26.90
2022-08-03T10:21:17.612Z,26.70
2022-08-03T10:24:11.807Z,27.80
2022-08-03T10:27:07.287Z,27.90
2022-08-03T10:30:06.921Z,26.40
2022-08-03T10:33:52.121Z,25.40
2022-08-03T10:36:38.520Z,26.20
2022-08-03T10:39:36.216Z,27.80
2022-08-03T10:42:33.361Z,28.70
2022-08-03T10:45:30.593Z,23.80
2022-08-03T10:48:25.318Z,24.40
2022-08-03T10:51:16.421Z,25.60
2022-08-03T10:54:58.421Z,28.10
2022-08-03T10:58:00.439Z,29.80
2022-08-03T11:00:52.142Z,27.90
2022-08-03T11:04:00.968Z,26.80
2022-08-03T11:07:19.502Z,27.30
2022-08-03T11:10:34.641Z,27.70
2022-08-03T11:13:30.970Z,26.80
2022-08-03T11:16:25.318Z,27.60
2022-08-03T11:19:22.698Z,27.90
2022-08-03T11:22:21.581Z,27.60
2022-08-03T11:25:53.140Z,28.60
2022-08-03T11:28:33.786Z,28.70
2022-08-03T11:31:49.357Z,29.80
2022-08-03T11:35:10.534Z,31.40
2022-08-03T11:38:03.462Z,29.50
2022-08-03T11:40:58.312Z,29.40
2022-08-03T11:43:48.577Z,30.40
2022-08-03T11:46:45.160Z,28.70
2022-08-03T11:49:39.129Z,30.60
2022-08-03T11:52:36.317Z,29.90
2022-08-03T11:55:30.570Z,28.90
2022-08-03T11:59:16.631Z,30.20
2022-08-03T12:01:36.240Z,30.20
2022-08-03T12:04:27.141Z,30.00
2022-08-03T12:08:02.199Z,30.40
2022-08-03T12:10:35.916Z,30.30
2022-08-03T12:14:43.822Z,30.00
2022-08-03T12:16:34.260Z,29.90
2022-08-03T12:19:24.382Z,29.50
2022-08-03T12:22:16.895Z,29.90
2022-08-03T12:25:11.574Z,29.60
2022-08-03T12:28:36.562Z,30.40
2022-08-03T12:31:31.762Z,30.30
2022-08-03T12:34:22.026Z,30.80
2022-08-03T12:37:21.847Z,30.00
2022-08-03T12:40:20.604Z,29.40
2022-08-03T12:43:17.534Z,30.50
2022-08-03T12:46:17.217Z,29.70
2022-08-03T12:49:19.114Z,30.30
2022-08-03T12:52:12.514Z,29.10
2022-08-03T12:55:01.466Z,29.30
2022-08-03T12:57:54.424Z,30.00
2022-08-03T13:01:00.225Z,30.00
2022-08-03T13:03:52.667Z,30.40
2022-08-03T13:06:45.556Z,30.60
2022-08-03T13:09:54.405Z,30.30
2022-08-03T13:12:54.403Z,30.10
2022-08-03T13:15:49.067Z,29.50
2022-08-03T13:18:39.439Z,29.60
2022-08-03T13:21:33.717Z,28.90
2022-08-03T13:24:44.772Z,29.30
2022-08-03T13:28:04.047Z,29.20
2022-08-03T13:30:47.983Z,28.90
2022-08-03T13:33:40.373Z,30.00
2022-08-03T13:36:42.748Z,29.20
2022-08-03T13:39:57.244Z,29.40
2022-08-03T13:42:48.876Z,30.30
2022-08-03T13:45:38.886Z,33.10
2022-08-03T13:48:37.332Z,30.40
2022-08-03T13:51:28.525Z,31.30
2022-08-03T13:54:16.355Z,29.80
2022-08-03T13:58:05.382Z,30.80
2022-08-03T14:00:26.437Z,30.10
2022-08-03T14:03:16.493Z,30.60
2022-08-03T14:06:06.509Z,29.80
2022-08-03T14:09:00.570Z,30.10
2022-08-03T14:12:07.383Z,33.60
2022-08-03T14:15:04.123Z,30.20
2022-08-03T14:17:52.004Z,28.80
2022-08-03T14:20:49.016Z,29.50
2022-08-03T14:23:47.726Z,30.00
2022-08-03T14:26:43.945Z,32.60
2022-08-03T14:29:34.256Z,30.00
2022-08-03T14:32:24.253Z,30.00
2022-08-03T14:35:14.992Z,30.30
2022-08-03T14:38:08.110Z,30.20
2022-08-03T14:41:01.174Z,30.00
2022-08-03T14:44:01.405Z,30.80
2022-08-03T14:46:52.894Z,30.00
2022-08-03T14:50:39.031Z,29.70
2022-08-03T14:52:56.710Z,28.80
2022-08-03T14:55:50.969Z,29.60
2022-08-03T14:58:42.133Z,29.50
2022-08-03T15:02:06.001Z,30.20
2022-08-03T15:04:43.428Z,31.60
2022-08-03T15:07:36.318Z,29.20
2022-08-03T15:10:30.657Z,29.30
2022-08-03T15:13:40.141Z,28.70
2022-08-03T15:16:32.962Z,29.10
2022-08-03T15:20:00.219Z,28.30
2022-08-03T15:22:36.706Z,28.00
2022-08-03T15:26:32.242Z,29.40
2022-08-03T15:28:42.001Z,29.50
2022-08-03T15:31:29.863Z,30.40
2022-08-03T15:34:20.231Z,29.90
2022-08-03T15:37:16.433Z,29.70
2022-08-03T15:40:07.812Z,29.90
2022-08-03T15:42:57.820Z,29.60
2022-08-03T15:45:48.000Z,30.40
2022-08-03T15:48:40.470Z,29.60
2022-08-03T15:51:30.927Z,29.40
2022-08-03T15:54:21.271Z,30.10
2022-08-03T15:57:13.504Z,29.80
2022-08-03T16:00:01.330Z,29.80
2022-08-03T16:02:56.759Z,29.60
2022-08-03T16:05:47.155Z,29.40
2022-08-03T16:08:37.273Z,29.60
2022-08-03T16:11:29.689Z,29.80
2022-08-03T16:14:34.863Z,29.00
2022-08-03T16:17:28.191Z,28.10
2022-08-03T16:20:31.495Z,30.00
2022-08-03T16:23:24.497Z,30.00
2022-08-03T16:26:17.278Z,29.80
2022-08-03T16:29:05.174Z,29.70
2022-08-03T16:32:17.935Z,30.00
2022-08-03T16:35:08.549Z,30.40
2022-08-03T16:38:02.820Z,29.60
2022-08-03T16:40:54.809Z,29.20
2022-08-03T16:43:47.596Z,29.70
2022-08-03T16:46:35.438Z,29.70
2022-08-03T16:49:55.291Z,30.50
2022-08-03T16:52:40.944Z,30.90
2022-08-03T16:55:49.108Z,30.10
2022-08-03T16:58:44.371Z,30.40
2022-08-03T17:01:37.836Z,30.70
2022-08-03T17:04:31.252Z,30.50
2022-08-03T17:07:23.469Z,29.90
2022-08-03T17:10:27.188Z,30.80
2022-08-03T17:13:22.074Z,30.20
2022-08-03T17:16:12.192Z,32.20
2022-08-03T17:19:09.752Z,30.30
2022-08-03T17:22:05.555Z,30.30
2022-08-03T17:24:57.330Z,30.90
2022-08-03T17:28:50.948Z,30.50
2022-08-03T17:31:22.891Z,30.80
2022-08-03T17:34:26.644Z,32.30
2022-08-03T17:37:49.715Z,31.90
2022-08-03T17:40:24.239Z,32.00
2022-08-03T17:44:13.760Z,32.50
2022-08-03T17:46:27.099Z,34.00
2022-08-03T17:49:23.816Z,31.80
2022-08-03T17:52:35.404Z,31.80
2022-08-03T17:55:57.534Z,32.30
2022-08-03T17:58:55.071Z,32.70
2022-08-03T18:02:40.804Z,33.50
2022-08-03T18:06:10.380Z,33.60
2022-08-03T18:08:56.328Z,34.10
2022-08-03T18:11:51.954Z,33.80
2022-08-03T18:15:01.053Z,36.10
2022-08-03T18:18:01.892Z,35.40
2022-08-03T18:20:53.491Z,36.70
2022-08-03T18:23:50.126Z,37.40
2022-08-03T18:26:48.482Z,39.60
2022-08-03T18:29:40.375Z,39.10
2022-08-03T18:32:30.450Z,40.40
2022-08-03T18:35:20.848Z,39.20
2022-08-03T18:38:17.062Z,41.90
2022-08-03T18:41:14.548Z,42.00
2022-08-03T18:44:06.634Z,41.20
2022-08-03T18:47:22.869Z,40.10
2022-08-03T18:50:31.855Z,41.70
2022-08-03T18:54:02.325Z,42.90
2022-08-03T18:56:58.385Z,41.30
2022-08-03T19:00:17.325Z,41.60
2022-08-03T19:03:20.429Z,41.40
2022-08-03T19:06:20.415Z,42.70
2022-08-03T19:09:35.847Z,41.70
2022-08-03T19:12:44.667Z,42.30
2022-08-03T19:15:36.835Z,43.30
2022-08-03T19:18:34.862Z,41.00
2022-08-03T19:21:28.376Z,41.60
2022-08-03T19:24:23.250Z,42.30
2022-08-03T19:27:13.059Z,43.40
2022-08-03T19:30:19.944Z,44.00
2022-08-03T19:33:15.702Z,44.30
2022-08-03T19:36:10.545Z,45.10
2022-08-03T19:39:03.253Z,45.20
2022-08-03T19:42:18.457Z,45.40
2022-08-03T19:45:14.209Z,45.50
2022-08-03T19:48:29.288Z,46.10
2022-08-03T19:51:17.248Z,46.40
2022-08-03T19:54:15.399Z,46.90
2022-08-03T19:57:04.798Z,46.90
2022-08-03T19:59:54.222Z,47.40
2022-08-03T20:02:43.092Z,47.70
2022-08-03T20:05:45.046Z,47.80
2022-08-03T20:08:44.080Z,48.00
2022-08-03T20:11:33.830Z,48.20
2022-08-03T20:14:33.082Z,48.30
2022-08-03T20:17:21.430Z,48.70
2022-08-03T20:20:09.841Z,49.00
2022-08-03T20:23:01.313Z,49.40
2022-08-03T20:25:58.274Z,49.60
2022-08-03T20:28:53.248Z,49.90
2022-08-03T20:31:41.050Z,50.40
2022-08-03T20:34:29.835Z,50.70
2022-08-03T20:37:18.353Z,50.80
2022-08-03T20:40:07.030Z,50.90
2022-08-03T20:42:55.304Z,50.90
2022-08-03T20:45:59.800Z,51.30
2022-08-03T20:48:52.867Z,51.50
2022-08-03T20:51:50.124Z,51.70
2022-08-03T20:54:41.692Z,52.20
2022-08-03T20:57:33.190Z,52.30
2022-08-03T21:00:22.007Z,52.20
2022-08-03T21:03:10.215Z,53.20
2022-08-03T21:06:04.776Z,52.40
2022-08-03T21:09:04.285Z,52.90
2022-08-03T21:11:54.453Z,52.90
2022-08-03T21:15:04.875Z,53.00
2022-08-03T21:17:57.103Z,53.60
2022-08-03T21:20:46.773Z,53.60
2022-08-03T21:23:47.974Z,54.20
2022-08-03T21:26:39.807Z,54.20
2022-08-03T21:29:31.393Z,54.40
2022-08-03T21:32:32.316Z,54.80
2022-08-03T21:35:22.603Z,55.10
2022-08-03T21:38:19.121Z,55.60
2022-08-03T21:41:08.774Z,55.70
2022-08-03T21:43:57.276Z,56.00
2022-08-03T21:46:46.444Z,56.00
2022-08-03T21:50:05.363Z,56.00
2022-08-03T21:52:48.889Z,56.30
2022-08-03T21:55:39.885Z,56.60
2022-08-03T21:58:43.072Z,56.70
2022-08-03T22:01:35.331Z,57.00
2022-08-03T22:04:54.939Z,57.80
2022-08-03T22:07:33.140Z,57.20
2022-08-03T22:10:21.563Z,57.20
2022-08-03T22:13:09.406Z,57.40
2022-08-03T22:15:57.672Z,57.80
2022-08-03T22:18:46.415Z,58.10
2022-08-03T22:21:36.467Z,58.60
2022-08-03T22:24:28.655Z,59.00
2022-08-03T22:27:33.260Z,59.60
2022-08-03T22:30:21.367Z,60.90
2022-08-03T22:33:12.169Z,61.20
2022-08-03T22:36:00.412Z,61.60
2022-08-03T22:38:48.816Z,62.40
2022-08-03T22:41:36.904Z,63.20
2022-08-03T22:44:27.714Z,63.90
2022-08-03T22:47:15.777Z,65.70
2022-08-03T22:50:31.356Z,65.90
2022-08-03T22:53:22.790Z,67.20
2022-08-03T22:56:10.948Z,71.40
2022-08-03T22:58:59.018Z,70.40
2022-08-03T23:01:49.021Z,70.40
2022-08-03T23:04:41.389Z,72.10
2022-08-03T23:07:35.099Z,74.80
2022-08-03T23:10:28.088Z,73.40
2022-08-03T23:13:18.263Z,73.70
2022-08-03T23:16:07.197Z,74.00
2022-08-03T23:18:55.060Z,74.90
2022-08-03T23:21:53.971Z,76.10
2022-08-03T23:24:50.837Z,76.70
2022-08-03T23:27:44.078Z,77.80
2022-08-03T23:30:31.910Z,79.40
2022-08-03T23:33:21.668Z,80.10
2022-08-03T23:36:31.113Z,81.90
2022-08-03T23:39:21.210Z,82.20
2022-08-03T23:42:09.947Z,82.60
2022-08-03T23:44:59.378Z,84.00
2022-08-03T23:47:53.852Z,85.20
2022-08-03T23:50:47.791Z,86.20
2022-08-03T23:53:45.157Z,87.20
2022-08-03T23:57:08.901Z,88.60
